Time;durP1;ratioP1;P1;durP2;ratioP2;P2;SDS_P1;SDS_P2;PMS_P1;PMS_P2;Temp;Humidity;BMP_temperature;BMP_pressure;BME280_temperature;BME280_humidity;BME280_pressure;Samples;Min_cycle;Max_cycle;Signal;HPM_P1;HPM_P2
2022/05/31 00:02:23;;;;;;;3.40;2.58;;;8.70;99.90;;;;;;5069362;28;20227;-67
2022/05/31 00:04:50;;;;;;;3.08;2.78;;;8.70;99.90;;;;;;5069386;28;20211;-68
2022/05/31 00:07:18;;;;;;;3.45;2.75;;;8.70;99.90;;;;;;5069996;28;20205;-68
2022/05/31 00:09:45;;;;;;;2.83;2.53;;;8.70;99.90;;;;;;5068957;28;20717;-69
2022/05/31 00:12:13;;;;;;;2.72;2.53;;;8.60;99.90;;;;;;5069357;28;20216;-69
2022/05/31 00:14:42;;;;;;;3.10;2.75;;;8.60;99.90;;;;;;5068784;28;20212;-68
2022/05/31 00:17:08;;;;;;;2.55;2.35;;;8.60;99.90;;;;;;5069578;28;20208;-69
2022/05/31 00:19:35;;;;;;;2.90;2.60;;;8.50;99.90;;;;;;5069056;28;20212;-69
2022/05/31 00:22:08;;;;;;;3.22;2.47;;;8.50;99.90;;;;;;5069430;28;20223;-68
2022/05/31 00:24:35;;;;;;;2.50;2.30;;;8.40;99.90;;;;;;5069143;28;20196;-68
2022/05/31 00:27:03;;;;;;;2.58;2.38;;;8.40;99.90;;;;;;5068835;28;20215;-69
2022/05/31 00:29:31;;;;;;;3.55;2.35;;;8.40;99.90;;;;;;5068740;28;20201;-68
2022/05/31 00:32:01;;;;;;;2.85;2.65;;;8.40;99.90;;;;;;5069362;28;20204;-69
2022/05/31 00:34:29;;;;;;;3.42;2.03;;;8.40;99.90;;;;;;5069423;28;20201;-68
2022/05/31 00:36:57;;;;;;;3.80;3.50;;;8.30;99.90;;;;;;5070783;28;20298;-67
2022/05/31 00:39:23;;;;;;;3.25;2.65;;;8.30;99.90;;;;;;5072090;28;20204;-68
2022/05/31 00:41:58;;;;;;;2.45;2.25;;;8.30;99.90;;;;;;5072087;28;20200;-68
2022/05/31 00:44:27;;;;;;;3.40;2.83;;;8.20;99.90;;;;;;5072743;28;20207;-68
2022/05/31 00:46:57;;;;;;;2.90;2.47;;;8.20;99.90;;;;;;5072996;28;20212;-69
2022/05/31 00:49:32;;;;;;;3.20;2.90;;;8.10;99.90;;;;;;5072231;28;20205;-69
2022/05/31 00:52:02;;;;;;;5.65;3.20;;;8.10;99.90;;;;;;5072770;28;20232;-67
2022/05/31 00:54:32;;;;;;;2.60;2.40;;;8.10;99.90;;;;;;5072773;28;20200;-68
2022/05/31 00:57:01;;;;;;;4.22;3.08;;;8.00;99.90;;;;;;5072836;28;20262;-68
2022/05/31 00:59:40;;;;;;;2.22;2.03;;;8.10;99.90;;;;;;5072264;28;20208;-68
2022/05/31 01:02:09;;;;;;;2.97;2.45;;;8.00;99.90;;;;;;5072149;28;20231;-69
2022/05/31 01:04:43;;;;;;;3.10;2.65;;;8.00;99.90;;;;;;5072552;28;20200;-67
2022/05/31 01:07:10;;;;;;;2.92;2.60;;;8.00;99.90;;;;;;5072629;28;20204;-68
2022/05/31 01:09:37;;;;;;;3.05;2.70;;;8.00;99.90;;;;;;5072196;28;20204;-68
2022/05/31 01:12:05;;;;;;;7.78;3.35;;;7.90;99.90;;;;;;5072695;28;20207;-68
2022/05/31 01:14:32;;;;;;;3.60;2.47;;;7.90;99.90;;;;;;5072083;28;20220;-69
2022/05/31 01:17:01;;;;;;;3.25;2.80;;;7.90;99.90;;;;;;5072919;28;20552;-69
2022/05/31 01:22:16;;;;;;;3.13;2.83;;;7.80;99.90;;;;;;5072694;28;20219;-69
2022/05/31 01:24:52;;;;;;;2.78;2.42;;;7.80;99.90;;;;;;5072166;28;20200;-67
2022/05/31 01:27:33;;;;;;;2.53;2.25;;;7.80;99.90;;;;;;5072028;28;20200;-69
2022/05/31 01:30:02;;;;;;;3.00;2.70;;;7.80;99.90;;;;;;5071812;28;20203;-69
2022/05/31 01:32:29;;;;;;;3.28;2.30;;;7.70;99.90;;;;;;5072165;28;20224;-69
2022/05/31 01:35:02;;;;;;;3.95;2.70;;;7.70;99.90;;;;;;5072097;28;20227;-68
2022/05/31 01:37:40;;;;;;;2.55;2.35;;;7.80;99.90;;;;;;5072205;28;20204;-68
2022/05/31 01:40:12;;;;;;;3.15;2.63;;;7.80;99.90;;;;;;5071388;28;20208;-68
2022/05/31 01:42:42;;;;;;;2.72;2.53;;;7.70;99.90;;;;;;5071899;28;20618;-68
2022/05/31 01:45:15;;;;;;;3.65;3.10;;;7.70;99.90;;;;;;5071940;28;20204;-69
2022/05/31 01:47:42;;;;;;;2.70;2.50;;;7.80;99.90;;;;;;5070977;28;20212;-69
2022/05/31 01:50:13;;;;;;;3.20;2.55;;;7.80;99.90;;;;;;5071547;28;20200;-68
2022/05/31 01:52:42;;;;;;;2.88;2.65;;;7.70;99.90;;;;;;5071192;28;20219;-69
2022/05/31 01:55:10;;;;;;;2.55;2.33;;;7.80;99.90;;;;;;5071891;28;20698;-69
2022/05/31 01:57:38;;;;;;;8.73;2.58;;;7.70;99.90;;;;;;5071386;28;20281;-68
2022/05/31 02:00:09;;;;;;;3.97;3.30;;;7.70;99.90;;;;;;5071399;28;20250;-69
2022/05/31 02:02:36;;;;;;;2.50;2.30;;;7.70;99.90;;;;;;5071153;28;20224;-69
2022/05/31 02:05:03;;;;;;;3.05;2.25;;;7.70;99.90;;;;;;5071138;28;20212;-69
2022/05/31 02:07:30;;;;;;;3.00;2.80;;;7.70;99.90;;;;;;5071733;28;20207;-69
2022/05/31 02:09:59;;;;;;;3.25;2.80;;;7.70;99.90;;;;;;5070615;28;20196;-69
2022/05/31 02:12:28;;;;;;;3.08;2.78;;;7.70;99.90;;;;;;5071694;28;20224;-70
2022/05/31 02:14:56;;;;;;;3.17;2.38;;;7.70;99.90;;;;;;5071120;28;20222;-68
2022/05/31 02:17:23;;;;;;;2.67;2.47;;;7.60;99.90;;;;;;5071065;28;20760;-69
2022/05/31 02:19:50;;;;;;;2.90;2.70;;;7.70;99.90;;;;;;5070541;28;20211;-69
2022/05/31 02:22:19;;;;;;;2.60;2.40;;;7.60;99.90;;;;;;5070969;28;20251;-69
2022/05/31 02:24:46;;;;;;;2.40;2.20;;;7.60;99.90;;;;;;5071109;28;20230;-69
2022/05/31 02:27:15;;;;;;;2.33;2.13;;;7.60;99.90;;;;;;5070994;28;20211;-69
2022/05/31 02:29:42;;;;;;;3.30;2.92;;;7.50;99.90;;;;;;5069909;28;20254;-68
2022/05/31 02:32:12;;;;;;;2.83;2.58;;;7.50;99.90;;;;;;5071177;28;20589;-69
2022/05/31 02:34:42;;;;;;;2.95;2.25;;;7.50;99.90;;;;;;5070533;28;20622;-68
2022/05/31 02:37:09;;;;;;;3.58;2.33;;;7.50;99.90;;;;;;5071330;28;20200;-69
2022/05/31 02:39:36;;;;;;;2.65;2.42;;;7.40;99.90;;;;;;5069690;28;20601;-68
2022/05/31 02:42:03;;;;;;;2.60;2.28;;;7.50;99.90;;;;;;5070724;28;20600;-68
2022/05/31 02:44:31;;;;;;;3.70;2.75;;;7.40;99.90;;;;;;5070991;28;20592;-69
2022/05/31 02:46:59;;;;;;;2.80;2.10;;;7.40;99.90;;;;;;5070602;28;20208;-68
2022/05/31 02:49:26;;;;;;;2.95;2.50;;;7.40;99.90;;;;;;5070466;28;20616;-69
2022/05/31 02:51:52;;;;;;;2.67;2.38;;;7.50;99.90;;;;;;5069914;28;20209;-68
2022/05/31 02:54:20;;;;;;;2.38;2.15;;;7.40;99.90;;;;;;5070725;28;20207;-68
2022/05/31 02:56:48;;;;;;;2.60;2.40;;;7.40;99.90;;;;;;5070478;28;20702;-69
2022/05/31 02:59:14;;;;;;;3.38;2.13;;;7.40;99.90;;;;;;5069702;28;20200;-68
2022/05/31 03:01:44;;;;;;;3.25;2.72;;;7.40;99.90;;;;;;5070059;28;20212;-69
2022/05/31 03:04:12;;;;;;;2.50;2.30;;;7.30;99.90;;;;;;5069876;28;20232;-68
2022/05/31 03:06:40;;;;;;;2.58;2.22;;;7.30;99.90;;;;;;5070478;28;20580;-69
2022/05/31 03:09:08;;;;;;;2.65;2.45;;;7.30;99.90;;;;;;5069964;28;20226;-69
2022/05/31 03:11:40;;;;;;;3.67;2.42;;;7.30;99.90;;;;;;5070097;28;20708;-68
2022/05/31 03:14:10;;;;;;;4.35;2.78;;;7.30;99.90;;;;;;5070169;28;20247;-68
2022/05/31 03:16:41;;;;;;;3.22;2.92;;;7.20;99.90;;;;;;5069521;28;20218;-69
2022/05/31 03:19:15;;;;;;;3.15;2.75;;;7.20;99.90;;;;;;5069845;28;20718;-69
2022/05/31 03:21:46;;;;;;;4.90;2.70;;;7.20;99.90;;;;;;5070148;28;20212;-68
2022/05/31 03:24:17;;;;;;;2.72;2.53;;;7.20;99.90;;;;;;5069810;28;20220;-69
2022/05/31 03:26:45;;;;;;;3.10;2.65;;;7.20;99.90;;;;;;5070043;28;20686;-68
2022/05/31 03:29:12;;;;;;;2.85;2.50;;;7.20;99.90;;;;;;5069120;28;20583;-68
2022/05/31 03:31:39;;;;;;;2.92;2.63;;;7.10;99.90;;;;;;5069402;28;20551;-69
2022/05/31 03:34:06;;;;;;;3.33;2.80;;;7.10;99.90;;;;;;5067566;28;20213;-68
2022/05/31 03:36:35;;;;;;;3.15;2.80;;;7.10;99.90;;;;;;5067858;28;20594;-70
2022/05/31 03:39:05;;;;;;;2.78;2.50;;;7.20;99.90;;;;;;5065809;28;20294;-70
2022/05/31 03:41:35;;;;;;;3.45;2.45;;;7.20;99.90;;;;;;5059941;28;20201;-70
2022/05/31 03:44:01;;;;;;;2.35;2.15;;;7.20;99.90;;;;;;5047538;28;20224;-69
2022/05/31 03:46:28;;;;;;;2.50;2.30;;;7.20;99.90;;;;;;5048103;28;20201;-68
2022/05/31 03:48:55;;;;;;;2.97;2.60;;;7.20;99.90;;;;;;5048009;28;20205;-69
2022/05/31 03:51:22;;;;;;;2.40;2.20;;;7.20;99.90;;;;;;5050164;28;20622;-69
2022/05/31 03:53:50;;;;;;;4.07;2.75;;;7.20;99.90;;;;;;5049154;28;20225;-68
2022/05/31 03:56:16;;;;;;;2.80;2.55;;;7.20;99.90;;;;;;5050358;28;20219;-68
2022/05/31 03:58:43;;;;;;;2.83;2.45;;;7.20;99.90;;;;;;5049815;28;20208;-69
2022/05/31 04:01:10;;;;;;;2.70;2.20;;;7.20;99.90;;;;;;5054393;28;20293;-68
2022/05/31 04:03:37;;;;;;;2.60;2.40;;;7.20;99.90;;;;;;5068594;28;20213;-68
2022/05/31 04:06:03;;;;;;;4.55;3.08;;;7.20;99.90;;;;;;5069142;28;20614;-68
2022/05/31 04:08:30;;;;;;;3.47;3.00;;;7.20;99.90;;;;;;5069227;28;20208;-68
2022/05/31 04:10:58;;;;;;;2.88;2.67;;;7.20;99.90;;;;;;5070346;28;20209;-68
2022/05/31 04:13:27;;;;;;;3.40;2.50;;;7.20;99.90;;;;;;5073839;28;20228;-68
2022/05/31 04:16:03;;;;;;;3.13;2.50;;;7.20;99.90;;;;;;5074915;28;20200;-69
2022/05/31 04:18:30;;;;;;;3.38;2.92;;;7.20;99.90;;;;;;5073725;28;20212;-69
2022/05/31 04:21:01;;;;;;;3.28;2.83;;;7.20;99.90;;;;;;5074698;28;20208;-68
2022/05/31 04:26:14;;;;;;;2.70;2.40;;;7.20;99.90;;;;;;5072865;28;20541;-68
2022/05/31 04:28:40;;;;;;;4.45;2.80;;;7.20;99.90;;;;;;5072327;28;20193;-68
2022/05/31 04:31:07;;;;;;;3.53;3.05;;;7.30;99.90;;;;;;5072375;28;20199;-68
2022/05/31 04:33:34;;;;;;;6.88;2.85;;;7.30;99.90;;;;;;5072916;28;20592;-68
2022/05/31 04:36:03;;;;;;;3.78;2.92;;;7.40;99.90;;;;;;5073764;28;20660;-70
2022/05/31 04:38:30;;;;;;;3.47;2.70;;;7.40;99.90;;;;;;5072747;28;20216;-70
2022/05/31 04:40:57;;;;;;;4.85;3.20;;;7.40;99.90;;;;;;5073661;28;20205;-71
2022/05/31 04:43:25;;;;;;;3.95;3.42;;;7.50;99.90;;;;;;5072330;28;20227;-71
2022/05/31 04:45:52;;;;;;;3.67;2.90;;;7.50;99.90;;;;;;5072895;28;20235;-71
2022/05/31 04:48:19;;;;;;;3.75;3.35;;;7.60;99.90;;;;;;5073814;28;20227;-71
2022/05/31 04:50:46;;;;;;;3.20;2.90;;;7.70;99.90;;;;;;5072656;28;20200;-71
2022/05/31 04:53:13;;;;;;;3.92;2.72;;;7.80;99.90;;;;;;5072425;28;20231;-71
2022/05/31 04:55:40;;;;;;;4.55;2.55;;;7.80;99.90;;;;;;5072069;28;20234;-69
2022/05/31 04:58:08;;;;;;;4.13;3.25;;;7.90;99.90;;;;;;5072078;28;20197;-70
2022/05/31 05:00:36;;;;;;;4.53;2.97;;;8.00;99.90;;;;;;5072267;28;20204;-70
2022/05/31 05:03:03;;;;;;;3.60;2.97;;;8.10;99.90;;;;;;5072402;28;20232;-72
2022/05/31 05:05:33;;;;;;;2.88;2.55;;;8.20;99.90;;;;;;5072093;28;20201;-73
2022/05/31 05:07:59;;;;;;;4.28;2.92;;;8.30;99.90;;;;;;5070987;28;20200;-73
2022/05/31 05:10:26;;;;;;;4.50;3.10;;;8.40;99.90;;;;;;5072138;28;20201;-73
2022/05/31 05:12:53;;;;;;;3.45;3.15;;;8.50;99.90;;;;;;5071892;28;20226;-72
2022/05/31 05:15:20;;;;;;;2.95;2.70;;;8.60;99.90;;;;;;5072366;28;20664;-73
2022/05/31 05:17:48;;;;;;;3.30;3.00;;;8.70;99.90;;;;;;5071869;28;20668;-73
2022/05/31 05:20:15;;;;;;;3.00;2.70;;;8.80;99.90;;;;;;5071512;28;20690;-70
2022/05/31 05:22:41;;;;;;;3.55;2.90;;;8.90;99.90;;;;;;5071051;28;20224;-70
2022/05/31 05:25:10;;;;;;;4.47;2.50;;;9.00;99.90;;;;;;5071710;28;20224;-72
2022/05/31 05:27:37;;;;;;;5.88;3.10;;;9.10;99.90;;;;;;5071588;28;20200;-72
2022/05/31 05:32:50;;;;;;;3.85;3.45;;;9.30;99.90;;;;;;5071465;28;20215;-70
2022/05/31 05:35:17;;;;;;;4.15;3.15;;;9.40;99.90;;;;;;5071699;28;20201;-73
2022/05/31 05:37:44;;;;;;;3.83;3.33;;;9.50;99.90;;;;;;5071114;28;20204;-73
2022/05/31 05:40:11;;;;;;;3.47;3.17;;;9.80;99.90;;;;;;5071436;28;20204;-72
2022/05/31 05:42:42;;;;;;;4.35;3.58;;;10.00;99.90;;;;;;5070409;28;20216;-70
2022/05/31 05:45:10;;;;;;;4.38;3.00;;;10.10;99.90;;;;;;5070145;28;20220;-69
2022/05/31 05:47:37;;;;;;;3.40;3.17;;;10.30;99.90;;;;;;5071162;28;20201;-71
2022/05/31 05:50:08;;;;;;;4.15;3.17;;;10.50;99.90;;;;;;5071609;28;20200;-71
2022/05/31 05:52:36;;;;;;;3.67;3.38;;;10.60;99.90;;;;;;5071798;28;20227;-71
2022/05/31 05:55:04;;;;;;;3.65;3.20;;;10.70;99.90;;;;;;5071469;28;20220;-71
2022/05/31 05:57:30;;;;;;;5.05;4.35;;;10.80;99.90;;;;;;5071918;28;20694;-73
2022/05/31 05:59:57;;;;;;;3.63;3.33;;;10.90;99.90;;;;;;5071020;28;20207;-74
2022/05/31 06:02:30;;;;;;;5.32;3.53;;;11.00;99.90;;;;;;5071846;28;20216;-70
2022/05/31 06:05:01;;;;;;;3.92;3.53;;;11.20;99.90;;;;;;5071432;28;20615;-69
2022/05/31 06:07:33;;;;;;;3.78;3.20;;;11.30;99.90;;;;;;5071201;28;20200;-70
2022/05/31 06:10:07;;;;;;;5.57;3.58;;;11.40;99.90;;;;;;5071118;28;20571;-70
2022/05/31 06:12:40;;;;;;;3.85;3.15;;;11.50;99.90;;;;;;5071215;28;20265;-69
2022/05/31 06:15:13;;;;;;;6.45;4.18;;;11.60;99.90;;;;;;5071650;28;20437;-69
2022/05/31 06:17:42;;;;;;;3.83;3.20;;;11.70;99.90;;;;;;5071159;28;20196;-70
2022/05/31 06:20:11;;;;;;;6.35;3.60;;;11.80;99.90;;;;;;5070788;28;20785;-72
2022/05/31 06:22:42;;;;;;;3.60;3.10;;;11.90;99.90;;;;;;5070933;28;20703;-72
2022/05/31 06:25:09;;;;;;;4.35;3.05;;;12.00;99.90;;;;;;5071092;28;20227;-74
2022/05/31 06:27:36;;;;;;;2.60;2.40;;;12.10;99.90;;;;;;5070897;28;20196;-74
2022/05/31 06:30:04;;;;;;;4.33;2.60;;;12.20;99.90;;;;;;5070556;28;20223;-70
2022/05/31 06:32:31;;;;;;;4.53;2.90;;;12.30;99.90;;;;;;5071231;28;20510;-70
2022/05/31 06:34:58;;;;;;;3.20;2.13;;;12.40;99.90;;;;;;5070768;28;20595;-70
2022/05/31 06:37:28;;;;;;;2.67;2.30;;;12.50;99.90;;;;;;5071329;28;20994;-67
2022/05/31 06:39:57;;;;;;;3.43;2.33;;;12.60;99.90;;;;;;5070768;28;20576;-67
2022/05/31 06:42:23;;;;;;;2.40;2.20;;;12.70;99.90;;;;;;5071077;28;20489;-69
2022/05/31 06:44:50;;;;;;;2.33;2.13;;;12.80;99.90;;;;;;5070622;28;20481;-70
2022/05/31 06:47:17;;;;;;;3.20;2.03;;;12.90;99.90;;;;;;5070282;28;20822;-70
2022/05/31 06:49:44;;;;;;;2.30;2.10;;;13.00;99.90;;;;;;5070730;28;20466;-70
2022/05/31 06:57:45;;;;;;;2.20;1.97;;;13.10;99.20;;;;;;5069856;28;20517;-68
2022/05/31 07:00:15;;;;;;;2.50;2.10;;;13.10;99.60;;;;;;5069746;28;20954;-68
2022/05/31 07:02:42;;;;;;;2.33;2.13;;;13.10;99.90;;;;;;5065710;28;20849;-69
2022/05/31 07:05:11;;;;;;;3.10;2.70;;;13.20;99.90;;;;;;5070245;28;20493;-73
2022/05/31 07:07:38;;;;;;;2.30;2.10;;;13.40;99.90;;;;;;5069336;28;20455;-72
2022/05/31 07:10:08;;;;;;;2.17;1.97;;;13.50;99.90;;;;;;5068646;28;20494;-72
2022/05/31 07:12:35;;;;;;;3.83;2.33;;;13.60;99.90;;;;;;5069763;28;20485;-72
2022/05/31 07:15:04;;;;;;;3.30;2.10;;;13.80;99.90;;;;;;5069810;28;20466;-72
2022/05/31 07:17:31;;;;;;;3.77;2.30;;;13.90;99.50;;;;;;5070046;28;20822;-73
2022/05/31 07:19:58;;;;;;;3.00;2.70;;;14.00;99.90;;;;;;5068984;28;20462;-72
2022/05/31 07:22:25;;;;;;;2.70;2.00;;;14.20;99.80;;;;;;5069324;28;20510;-72
2022/05/31 07:24:52;;;;;;;2.30;2.10;;;14.30;98.90;;;;;;5069632;28;20478;-73
2022/05/31 07:27:20;;;;;;;3.87;2.13;;;14.30;98.90;;;;;;5069835;28;20455;-72
2022/05/31 07:29:47;;;;;;;3.60;2.10;;;14.40;98.60;;;;;;5069012;28;20490;-71
2022/05/31 07:32:14;;;;;;;2.33;2.00;;;14.40;99.70;;;;;;5069788;28;20479;-72
2022/05/31 07:34:40;;;;;;;2.17;1.80;;;14.60;99.50;;;;;;5068910;28;20454;-72
2022/05/31 07:37:07;;;;;;;2.67;2.30;;;14.60;99.30;;;;;;5069396;28;20462;-70
2022/05/31 07:39:35;;;;;;;3.03;2.10;;;14.90;99.90;;;;;;5068336;28;20462;-71
2022/05/31 07:42:02;;;;;;;2.63;2.00;;;15.00;99.80;;;;;;5069290;28;20477;-71
2022/05/31 07:44:30;;;;;;;3.83;2.30;;;15.20;99.10;;;;;;5069518;28;20855;-71
2022/05/31 07:46:59;;;;;;;2.20;2.00;;;15.20;99.10;;;;;;5070657;28;20549;-69
2022/05/31 07:49:26;;;;;;;2.70;2.00;;;15.30;98.70;;;;;;5072963;28;20458;-71
2022/05/31 07:51:53;;;;;;;2.27;1.90;;;15.40;98.50;;;;;;5073068;28;20979;-69
2022/05/31 07:54:20;;;;;;;2.20;2.00;;;15.40;98.00;;;;;;5073127;28;20876;-71
2022/05/31 07:56:48;;;;;;;2.37;1.97;;;15.50;97.40;;;;;;5072779;28;20461;-72
2022/05/31 07:59:15;;;;;;;2.40;1.97;;;15.50;97.60;;;;;;5072712;28;20836;-72
2022/05/31 08:01:43;;;;;;;2.03;1.90;;;15.60;98.30;;;;;;5073064;28;20465;-71
2022/05/31 08:04:13;;;;;;;2.70;2.30;;;15.80;98.50;;;;;;5073331;28;20474;-73
2022/05/31 08:06:39;;;;;;;3.40;2.23;;;15.90;98.40;;;;;;5073101;28;20458;-69
2022/05/31 08:09:06;;;;;;;3.90;2.20;;;16.00;97.70;;;;;;5072098;28;20556;-71
2022/05/31 08:11:34;;;;;;;3.07;1.60;;;16.00;97.80;;;;;;5072971;28;20465;-70
2022/05/31 08:14:03;;;;;;;2.23;1.80;;;16.10;98.50;;;;;;5072826;28;20497;-75
2022/05/31 08:16:32;;;;;;;2.20;2.00;;;16.30;97.70;;;;;;5072357;28;20462;-74
2022/05/31 08:19:00;;;;;;;2.37;2.17;;;16.40;97.20;;;;;;5054964;28;20977;-73
2022/05/31 08:21:30;;;;;;;2.40;1.80;;;16.50;98.20;;;;;;5072536;28;20895;-73
2022/05/31 08:23:59;;;;;;;2.43;1.80;;;16.60;98.40;;;;;;5072636;28;20517;-72
2022/05/31 08:26:26;;;;;;;3.60;2.10;;;16.80;99.90;;;;;;5072939;28;20486;-74
2022/05/31 08:28:53;;;;;;;3.30;2.50;;;17.00;98.30;;;;;;5071886;28;20469;-72
2022/05/31 08:31:24;;;;;;;2.63;2.10;;;17.10;97.60;;;;;;5072820;28;20465;-73
2022/05/31 08:33:51;;;;;;;3.40;1.90;;;17.20;97.10;;;;;;5071771;28;20483;-72
2022/05/31 08:36:19;;;;;;;4.73;2.00;;;17.30;97.40;;;;;;5072533;28;20461;-71
2022/05/31 08:38:46;;;;;;;2.93;1.60;;;17.40;97.60;;;;;;5072260;28;20466;-71
2022/05/31 08:41:27;;;;;;;2.40;2.17;;;17.60;97.70;;;;;;5072748;28;20450;-68
2022/05/31 08:44:08;;;;;;;3.00;1.80;;;17.70;95.60;;;;;;5072048;28;21067;-68
2022/05/31 08:47:02;;;;;;;4.00;1.73;;;17.80;95.90;;;;;;5071750;28;20902;-68
2022/05/31 08:52:51;;;;;;;2.83;1.90;;;18.10;94.90;;;;;;5072054;28;20543;-71
2022/05/31 08:58:13;;;;;;;2.17;1.80;;;18.30;94.70;;;;;;5070854;28;20833;-71
2022/05/31 09:00:42;;;;;;;2.50;1.97;;;18.50;95.70;;;;;;5071689;28;20869;-71
2022/05/31 09:03:16;;;;;;;2.13;2.03;;;18.60;94.10;;;;;;5072142;28;20852;-70
2022/05/31 09:05:49;;;;;;;3.43;2.03;;;18.60;94.30;;;;;;5071745;28;20493;-70
2022/05/31 09:08:24;;;;;;;2.83;1.90;;;18.60;93.20;;;;;;5071352;28;20459;-68
2022/05/31 09:10:58;;;;;;;3.03;2.00;;;18.50;95.20;;;;;;5071386;28;20458;-71
2022/05/31 09:13:32;;;;;;;2.13;1.70;;;18.60;95.00;;;;;;5071596;28;20489;-71
2022/05/31 09:16:02;;;;;;;2.07;1.80;;;18.80;93.70;;;;;;5071715;28;20826;-71
2022/05/31 09:18:40;;;;;;;1.83;1.40;;;18.80;94.40;;;;;;5071612;28;20459;-71
2022/05/31 09:21:17;;;;;;;1.83;1.73;;;18.80;95.20;;;;;;5071565;28;20962;-69
2022/05/31 09:23:46;;;;;;;1.83;1.73;;;18.90;94.90;;;;;;5070878;28;20482;-70
2022/05/31 09:26:26;;;;;;;2.93;1.87;;;19.00;95.60;;;;;;5071779;28;20555;-72
2022/05/31 09:28:58;;;;;;;2.10;1.63;;;19.00;94.50;;;;;;5070588;28;20473;-70
2022/05/31 09:31:40;;;;;;;3.50;1.83;;;19.20;95.20;;;;;;5071588;28;20455;-71
2022/05/31 09:34:22;;;;;;;4.27;1.90;;;19.40;93.40;;;;;;5071724;28;21019;-71
2022/05/31 09:36:56;;;;;;;6.10;2.07;;;19.60;95.50;;;;;;5070540;28;20461;-71
2022/05/31 09:39:33;;;;;;;2.83;2.00;;;19.90;95.40;;;;;;5071067;28;20459;-70
2022/05/31 09:42:06;;;;;;;3.53;2.03;;;20.00;92.30;;;;;;5071312;28;20462;-69
2022/05/31 09:44:38;;;;;;;4.20;3.80;;;20.10;92.70;;;;;;5071027;28;20458;-69
2022/05/31 09:47:11;;;;;;;3.07;2.30;;;20.10;93.50;;;;;;5071204;28;20490;-69
2022/05/31 09:49:42;;;;;;;2.60;1.73;;;20.20;92.80;;;;;;5070511;28;20465;-68
2022/05/31 09:52:12;;;;;;;2.23;2.00;;;20.30;93.80;;;;;;5070890;28;20466;-69
2022/05/31 09:58:02;;;;;;;4.23;1.90;;;20.60;89.00;;;;;;5070365;28;20569;-72
2022/05/31 10:00:29;;;;;;;2.13;1.87;;;20.70;92.10;;;;;;5070776;28;20828;-72
2022/05/31 10:03:15;;;;;;;3.17;1.80;;;21.00;92.30;;;;;;5070775;28;20487;-72
2022/05/31 10:05:45;;;;;;;2.13;1.53;;;21.10;90.80;;;;;;5070910;28;20489;-69
2022/05/31 10:08:16;;;;;;;3.33;2.27;;;21.30;92.40;;;;;;5069706;28;20490;-70
2022/05/31 10:10:48;;;;;;;2.23;1.90;;;21.30;90.80;;;;;;5070241;28;20462;-69
2022/05/31 10:13:35;;;;;;;2.23;1.93;;;21.30;92.10;;;;;;5069978;28;20855;-70
2022/05/31 10:16:11;;;;;;;1.83;1.73;;;21.30;93.00;;;;;;5070789;28;20494;-69
2022/05/31 10:18:48;;;;;;;2.67;1.90;;;21.20;90.10;;;;;;5070017;28;20485;-70
2022/05/31 10:21:28;;;;;;;2.70;1.77;;;21.10;89.90;;;;;;5070259;28;20462;-70
2022/05/31 10:23:55;;;;;;;3.10;1.70;;;20.80;89.80;;;;;;5070054;28;20547;-70
2022/05/31 10:26:28;;;;;;;2.60;2.07;;;20.80;91.40;;;;;;5070497;28;20478;-70
2022/05/31 10:28:58;;;;;;;3.03;2.13;;;20.70;90.40;;;;;;5069336;28;20953;-70
2022/05/31 10:31:32;;;;;;;3.53;2.07;;;20.80;92.10;;;;;;5070555;28;20635;-70
2022/05/31 10:34:01;;;;;;;4.93;2.07;;;21.00;92.10;;;;;;5070399;28;20482;-70
2022/05/31 10:36:30;;;;;;;1.70;1.60;;;21.30;92.20;;;;;;5069467;28;20463;-69
2022/05/31 10:39:08;;;;;;;5.90;2.30;;;21.50;92.00;;;;;;5069290;28;20868;-69
2022/05/31 10:41:38;;;;;;;2.93;1.90;;;21.60;91.90;;;;;;5070322;28;20497;-69
2022/05/31 10:44:11;;;;;;;3.60;2.20;;;21.60;91.20;;;;;;5069844;28;20482;-69
2022/05/31 10:46:39;;;;;;;2.20;1.73;;;21.40;90.80;;;;;;5069785;28;20482;-69
2022/05/31 10:49:15;;;;;;;2.30;2.10;;;21.10;92.50;;;;;;5069184;28;20454;-69
2022/05/31 10:51:54;;;;;;;4.20;2.23;;;21.10;94.10;;;;;;5069152;28;20462;-73
2022/05/31 10:56:57;;;;;;;3.40;2.20;;;21.60;95.50;;;;;;5093630;28;20730;-77
2022/05/31 10:59:29;;;;;;;3.63;2.50;;;21.70;93.80;;;;;;5113363;28;20491;-79
2022/05/31 11:02:30;;;;;;;2.47;2.20;;;21.80;93.70;;;;;;5118139;28;20943;-79
2022/05/31 11:05:02;;;;;;;5.37;2.30;;;21.80;93.10;;;;;;5117921;28;20452;-79
2022/05/31 11:11:28;;;;;;;4.60;2.07;;;21.90;94.70;;;;;;5114593;28;20457;-78
2022/05/31 11:13:37;;;;;;;2.13;1.93;;;22.70;94.70;;;;;;5111906;28;20495;-77
2022/05/31 11:16:10;;;;;;;3.43;2.50;;;23.10;93.10;;;;;;5115111;27;20448;-78
2022/05/31 11:19:06;;;;;;;6.50;2.70;;;23.20;93.80;;;;;;5111516;28;20460;-78
2022/05/31 11:21:45;;;;;;;4.20;3.20;;;23.40;95.10;;;;;;5111727;28;20465;-80
2022/05/31 11:24:42;;;;;;;3.73;2.17;;;23.50;93.30;;;;;;5113055;28;20468;-78
2022/05/31 11:27:31;;;;;;;2.60;2.40;;;23.40;93.40;;;;;;5110293;28;20838;-75
2022/05/31 11:30:15;;;;;;;2.27;2.07;;;23.40;94.00;;;;;;5113993;28;20465;-78
2022/05/31 11:33:03;;;;;;;4.03;2.43;;;23.50;92.60;;;;;;5113736;28;20480;-76
2022/05/31 11:35:51;;;;;;;4.10;2.40;;;23.60;91.40;;;;;;5112815;28;20455;-78
2022/05/31 11:38:23;;;;;;;2.30;2.10;;;23.60;92.20;;;;;;5110777;28;20967;-76
2022/05/31 11:40:59;;;;;;;3.20;2.30;;;23.60;92.50;;;;;;5110964;28;20541;-77
2022/05/31 11:44:15;;;;;;;2.83;2.60;;;23.60;91.40;;;;;;5111920;28;20489;-77
2022/05/31 11:46:48;;;;;;;4.27;2.13;;;23.30;86.80;;;;;;5114186;28;20492;-78
2022/05/31 11:49:26;;;;;;;2.67;1.70;;;23.00;91.10;;;;;;5114670;28;20459;-78
2022/05/31 11:52:14;;;;;;;4.67;2.30;;;22.80;91.90;;;;;;5112963;28;20456;-79
2022/05/31 11:55:28;;;;;;;2.83;2.23;;;22.90;92.40;;;;;;5114612;28;20457;-78
2022/05/31 11:58:08;;;;;;;3.87;2.10;;;22.90;91.10;;;;;;5113906;28;20909;-80
2022/05/31 12:00:41;;;;;;;2.07;1.90;;;23.00;91.80;;;;;;5113018;28;20457;-77
2022/05/31 12:03:16;;;;;;;2.87;2.10;;;23.10;91.10;;;;;;5112343;28;20893;-79
2022/05/31 12:05:46;;;;;;;2.80;2.10;;;23.10;91.50;;;;;;5110810;28;20480;-76
2022/05/31 12:08:16;;;;;;;2.47;2.27;;;22.80;91.80;;;;;;5109250;28;20460;-76
2022/05/31 12:10:47;;;;;;;2.97;2.10;;;22.60;91.50;;;;;;5111856;28;20813;-75
2022/05/31 12:13:15;;;;;;;3.10;2.10;;;22.30;90.40;;;;;;5109993;28;20484;-75
2022/05/31 12:15:45;;;;;;;3.03;1.90;;;22.00;90.90;;;;;;5108679;28;20456;-77
2022/05/31 12:18:22;;;;;;;2.70;1.83;;;21.80;90.60;;;;;;5109934;28;20805;-76
2022/05/31 12:20:54;;;;;;;3.10;2.30;;;21.60;90.40;;;;;;5110715;28;20951;-76
2022/05/31 12:23:32;;;;;;;2.93;1.87;;;21.50;90.30;;;;;;5110544;28;20556;-79
2022/05/31 12:26:01;;;;;;;4.43;1.97;;;21.30;90.10;;;;;;5110931;28;20476;-75
2022/05/31 12:28:37;;;;;;;4.23;1.90;;;21.20;90.20;;;;;;5107831;28;20453;-75
2022/05/31 12:31:08;;;;;;;2.10;1.93;;;21.10;90.70;;;;;;5109662;28;20464;-79
2022/05/31 12:33:43;;;;;;;2.70;1.80;;;21.10;90.10;;;;;;5114415;28;21010;-81
2022/05/31 12:36:11;;;;;;;4.90;2.37;;;21.20;90.80;;;;;;5115388;28;20466;-78
2022/05/31 12:39:06;;;;;;;3.10;2.03;;;21.20;91.40;;;;;;5114636;27;20456;-79
2022/05/31 12:41:39;;;;;;;4.27;2.40;;;21.40;90.10;;;;;;5115253;28;20464;-76
2022/05/31 12:44:12;;;;;;;3.47;2.57;;;21.40;90.20;;;;;;5113357;28;20484;-72
2022/05/31 12:46:41;;;;;;;3.30;2.13;;;21.40;90.60;;;;;;5113592;28;20492;-76
2022/05/31 12:49:20;;;;;;;3.40;1.90;;;21.40;90.80;;;;;;5113310;28;20481;-77
2022/05/31 12:52:19;;;;;;;2.20;2.00;;;21.40;90.70;;;;;;5112652;28;20838;-77
2022/05/31 12:54:49;;;;;;;2.93;1.93;;;21.50;90.00;;;;;;5114763;28;20464;-77
2022/05/31 12:57:23;;;;;;;2.30;1.93;;;21.60;90.90;;;;;;5114914;28;20484;-77
2022/05/31 12:59:55;;;;;;;2.83;2.00;;;21.80;91.50;;;;;;5113486;28;20449;-77
2022/05/31 13:02:38;;;;;;;5.17;2.40;;;22.10;91.70;;;;;;5115185;28;20483;-76
2022/05/31 13:05:40;;;;;;;2.60;2.00;;;22.40;91.00;;;;;;5114097;28;20457;-77
2022/05/31 13:08:20;;;;;;;2.20;2.00;;;22.60;89.90;;;;;;5113601;27;20460;-77
2022/05/31 13:22:04;;;;;;;3.30;1.93;;;23.20;89.00;;;;;;5112612;28;20483;-81
2022/05/31 13:24:32;;;;;;;2.63;1.83;;;23.20;87.60;;;;;;5113315;28;20492;-76
2022/05/31 13:27:00;;;;;;;2.30;1.80;;;23.20;87.00;;;;;;5112618;28;20488;-77
2022/05/31 13:29:27;;;;;;;4.13;2.00;;;23.20;86.40;;;;;;5111853;27;20468;-78
2022/05/31 13:31:56;;;;;;;2.27;1.97;;;23.30;89.90;;;;;;5114578;28;20453;-80
2022/05/31 13:34:32;;;;;;;2.20;2.00;;;23.30;85.20;;;;;;5112668;28;20465;-79
2022/05/31 13:37:03;;;;;;;2.43;1.73;;;23.40;89.60;;;;;;5113358;28;20460;-79
2022/05/31 13:39:36;;;;;;;3.80;2.20;;;23.50;89.40;;;;;;5112251;28;20461;-77
2022/05/31 13:42:05;;;;;;;2.30;1.87;;;23.50;85.70;;;;;;5112979;28;20458;-80
2022/05/31 13:44:36;;;;;;;2.00;1.80;;;23.50;86.10;;;;;;5106940;28;20462;-74
2022/05/31 13:47:06;;;;;;;3.70;1.70;;;23.60;84.80;;;;;;5091387;28;20493;-78
2022/05/31 13:49:37;;;;;;;2.10;1.90;;;23.60;87.40;;;;;;5092644;28;20462;-80
2022/05/31 13:52:21;;;;;;;3.73;2.30;;;23.50;85.00;;;;;;5091481;28;20458;-75